sensor_id;sensor_type;location;lat;lon;timestamp;temperature;humidity
41939;DHT22;23057;48.554;14.454;2023-09-08T00:01:32;12.00;99.90
41939;DHT22;23057;48.554;14.454;2023-09-08T00:04:03;11.90;99.90
41939;DHT22;23057;48.554;14.454;2023-09-08T00:06:34;11.90;99.90
41939;DHT22;23057;48.554;14.454;2023-09-08T00:09:05;11.90;99.90
41939;DHT22;23057;48.554;14.454;2023-09-08T00:11:36;11.70;99.90
41939;DHT22;23057;48.554;14.454;2023-09-08T00:14:06;12.10;99.90
41939;DHT22;23057;48.554;14.454;2023-09-08T00:16:37;12.10;99.90
41939;DHT22;23057;48.554;14.454;2023-09-08T00:19:10;12.30;99.90
41939;DHT22;23057;48.554;14.454;2023-09-08T00:21:41;12.10;99.90
41939;DHT22;23057;48.554;14.454;2023-09-08T00:24:13;12.10;99.90
41939;DHT22;23057;48.554;14.454;2023-09-08T00:26:44;12.00;99.90
41939;DHT22;23057;48.554;14.454;2023-09-08T00:29:15;12.00;99.90
41939;DHT22;23057;48.554;14.454;2023-09-08T00:31:46;12.00;99.90
41939;DHT22;23057;48.554;14.454;2023-09-08T00:34:17;11.90;99.90
41939;DHT22;23057;48.554;14.454;2023-09-08T00:36:47;11.90;99.90
41939;DHT22;23057;48.554;14.454;2023-09-08T00:39:18;11.80;99.90
41939;DHT22;23057;48.554;14.454;2023-09-08T00:41:49;11.80;99.90
41939;DHT22;23057;48.554;14.454;2023-09-08T00:44:20;11.70;99.90
41939;DHT22;23057;48.554;14.454;2023-09-08T00:46:51;11.70;99.90
41939;DHT22;23057;48.554;14.454;2023-09-08T00:49:22;11.70;99.90
41939;DHT22;23057;48.554;14.454;2023-09-08T00:51:53;11.80;99.90
41939;DHT22;23057;48.554;14.454;2023-09-08T00:54:24;11.80;99.90
41939;DHT22;23057;48.554;14.454;2023-09-08T00:56:56;11.70;99.90
41939;DHT22;23057;48.554;14.454;2023-09-08T00:59:27;11.60;99.90
41939;DHT22;23057;48.554;14.454;2023-09-08T01:02:02;11.50;99.90
41939;DHT22;23057;48.554;14.454;2023-09-08T01:04:33;11.50;99.90
41939;DHT22;23057;48.554;14.454;2023-09-08T01:07:04;11.50;99.90
41939;DHT22;23057;48.554;14.454;2023-09-08T01:09:36;11.50;99.90
41939;DHT22;23057;48.554;14.454;2023-09-08T01:12:07;11.40;99.90
41939;DHT22;23057;48.554;14.454;2023-09-08T01:14:39;11.30;99.90
41939;DHT22;23057;48.554;14.454;2023-09-08T01:17:09;11.20;99.90
41939;DHT22;23057;48.554;14.454;2023-09-08T01:19:43;11.00;99.90
41939;DHT22;23057;48.554;14.454;2023-09-08T01:22:36;11.10;99.90
41939;DHT22;23057;48.554;14.454;2023-09-08T01:25:55;11.00;99.90
41939;DHT22;23057;48.554;14.454;2023-09-08T01:28:34;10.90;99.90
41939;DHT22;23057;48.554;14.454;2023-09-08T01:31:08;10.80;99.90
41939;DHT22;23057;48.554;14.454;2023-09-08T01:33:39;10.80;99.90
41939;DHT22;23057;48.554;14.454;2023-09-08T01:36:12;10.80;99.90
41939;DHT22;23057;48.554;14.454;2023-09-08T01:38:44;10.80;99.90
41939;DHT22;23057;48.554;14.454;2023-09-08T01:41:15;10.70;99.90
41939;DHT22;23057;48.554;14.454;2023-09-08T01:43:46;10.70;99.90
41939;DHT22;23057;48.554;14.454;2023-09-08T01:46:17;10.70;99.90
41939;DHT22;23057;48.554;14.454;2023-09-08T01:48:47;10.60;99.90
41939;DHT22;23057;48.554;14.454;2023-09-08T01:51:18;10.60;99.90
41939;DHT22;23057;48.554;14.454;2023-09-08T01:53:49;10.60;99.90
41939;DHT22;23057;48.554;14.454;2023-09-08T01:56:20;10.60;99.90
41939;DHT22;23057;48.554;14.454;2023-09-08T01:58:51;10.60;99.90
41939;DHT22;23057;48.554;14.454;2023-09-08T02:01:22;10.60;99.90
41939;DHT22;23057;48.554;14.454;2023-09-08T02:03:52;10.60;99.90
41939;DHT22;23057;48.554;14.454;2023-09-08T02:06:23;10.60;99.90
41939;DHT22;23057;48.554;14.454;2023-09-08T02:08:54;10.60;99.90
41939;DHT22;23057;48.554;14.454;2023-09-08T02:11:25;10.50;99.90
41939;DHT22;23057;48.554;14.454;2023-09-08T02:13:56;10.40;99.90
41939;DHT22;23057;48.554;14.454;2023-09-08T02:16:26;10.40;99.90
41939;DHT22;23057;48.554;14.454;2023-09-08T02:18:58;10.30;99.90
41939;DHT22;23057;48.554;14.454;2023-09-08T02:21:29;10.20;99.90
41939;DHT22;23057;48.554;14.454;2023-09-08T02:24:00;10.10;99.90
41939;DHT22;23057;48.554;14.454;2023-09-08T02:26:31;10.10;99.90
41939;DHT22;23057;48.554;14.454;2023-09-08T02:29:04;10.10;99.90
41939;DHT22;23057;48.554;14.454;2023-09-08T02:31:35;10.10;99.90
41939;DHT22;23057;48.554;14.454;2023-09-08T02:34:06;10.00;99.90
41939;DHT22;23057;48.554;14.454;2023-09-08T02:36:36;10.00;99.90
41939;DHT22;23057;48.554;14.454;2023-09-08T02:39:07;10.10;99.90
41939;DHT22;23057;48.554;14.454;2023-09-08T02:41:38;10.10;99.90
41939;DHT22;23057;48.554;14.454;2023-09-08T02:46:50;10.00;99.90
41939;DHT22;23057;48.554;14.454;2023-09-08T02:49:21;10.00;99.90
41939;DHT22;23057;48.554;14.454;2023-09-08T02:51:52;10.00;99.90
41939;DHT22;23057;48.554;14.454;2023-09-08T02:54:23;10.00;99.90
41939;DHT22;23057;48.554;14.454;2023-09-08T02:56:53;10.00;99.90
41939;DHT22;23057;48.554;14.454;2023-09-08T02:59:24;10.00;99.90
41939;DHT22;23057;48.554;14.454;2023-09-08T03:01:55;10.00;99.90
41939;DHT22;23057;48.554;14.454;2023-09-08T03:04:26;9.90;99.90
41939;DHT22;23057;48.554;14.454;2023-09-08T03:06:56;9.80;99.90
41939;DHT22;23057;48.554;14.454;2023-09-08T03:09:27;9.60;99.90
41939;DHT22;23057;48.554;14.454;2023-09-08T03:11:58;9.60;99.90
41939;DHT22;23057;48.554;14.454;2023-09-08T03:14:29;9.60;99.90
41939;DHT22;23057;48.554;14.454;2023-09-08T03:17:00;9.50;99.90
41939;DHT22;23057;48.554;14.454;2023-09-08T03:19:31;9.60;99.90
41939;DHT22;23057;48.554;14.454;2023-09-08T03:22:02;9.60;99.90
41939;DHT22;23057;48.554;14.454;2023-09-08T03:24:33;9.60;99.90
41939;DHT22;23057;48.554;14.454;2023-09-08T03:27:04;9.50;99.90
41939;DHT22;23057;48.554;14.454;2023-09-08T03:29:35;9.40;99.90
41939;DHT22;23057;48.554;14.454;2023-09-08T03:32:05;9.30;99.90
41939;DHT22;23057;48.554;14.454;2023-09-08T03:34:36;9.20;99.90
41939;DHT22;23057;48.554;14.454;2023-09-08T03:37:09;9.20;99.90
41939;DHT22;23057;48.554;14.454;2023-09-08T03:39:40;9.30;99.90
41939;DHT22;23057;48.554;14.454;2023-09-08T03:42:11;9.20;99.90
41939;DHT22;23057;48.554;14.454;2023-09-08T03:44:42;9.20;99.90
41939;DHT22;23057;48.554;14.454;2023-09-08T03:47:13;9.20;99.90
41939;DHT22;23057;48.554;14.454;2023-09-08T03:49:43;9.20;99.90
41939;DHT22;23057;48.554;14.454;2023-09-08T03:52:14;9.20;99.90
41939;DHT22;23057;48.554;14.454;2023-09-08T03:54:45;9.20;99.90
41939;DHT22;23057;48.554;14.454;2023-09-08T03:57:16;9.20;99.90
41939;DHT22;23057;48.554;14.454;2023-09-08T03:59:48;9.20;99.90
41939;DHT22;23057;48.554;14.454;2023-09-08T04:02:18;9.20;99.90
41939;DHT22;23057;48.554;14.454;2023-09-08T04:04:49;9.20;99.90
41939;DHT22;23057;48.554;14.454;2023-09-08T04:07:20;9.20;99.90
41939;DHT22;23057;48.554;14.454;2023-09-08T04:09:51;9.20;99.90
41939;DHT22;23057;48.554;14.454;2023-09-08T04:12:21;9.10;99.90
41939;DHT22;23057;48.554;14.454;2023-09-08T04:14:52;9.10;99.90
41939;DHT22;23057;48.554;14.454;2023-09-08T04:17:23;9.10;99.90
41939;DHT22;23057;48.554;14.454;2023-09-08T04:19:54;9.10;99.90
41939;DHT22;23057;48.554;14.454;2023-09-08T04:22:25;9.10;99.90
41939;DHT22;23057;48.554;14.454;2023-09-08T04:24:56;9.10;99.90
41939;DHT22;23057;48.554;14.454;2023-09-08T04:27:27;9.10;99.90
41939;DHT22;23057;48.554;14.454;2023-09-08T04:29:58;9.10;99.90
41939;DHT22;23057;48.554;14.454;2023-09-08T04:32:29;9.00;99.90
41939;DHT22;23057;48.554;14.454;2023-09-08T04:35:00;9.00;99.90
41939;DHT22;23057;48.554;14.454;2023-09-08T04:37:31;9.00;99.90
41939;DHT22;23057;48.554;14.454;2023-09-08T04:40:03;9.00;99.90
41939;DHT22;23057;48.554;14.454;2023-09-08T04:42:34;9.00;99.90
41939;DHT22;23057;48.554;14.454;2023-09-08T04:45:06;9.00;99.90
41939;DHT22;23057;48.554;14.454;2023-09-08T04:47:37;9.20;99.90
41939;DHT22;23057;48.554;14.454;2023-09-08T04:50:08;9.30;99.90
41939;DHT22;23057;48.554;14.454;2023-09-08T04:52:40;9.40;99.90
41939;DHT22;23057;48.554;14.454;2023-09-08T04:55:10;10.00;99.90
41939;DHT22;23057;48.554;14.454;2023-09-08T04:57:41;11.30;99.90
41939;DHT22;23057;48.554;14.454;2023-09-08T05:00:16;12.00;99.90
41939;DHT22;23057;48.554;14.454;2023-09-08T05:02:48;13.10;99.90
41939;DHT22;23057;48.554;14.454;2023-09-08T05:05:18;14.00;99.90
41939;DHT22;23057;48.554;14.454;2023-09-08T05:07:49;14.20;99.90
41939;DHT22;23057;48.554;14.454;2023-09-08T05:10:22;14.80;99.90
41939;DHT22;23057;48.554;14.454;2023-09-08T05:12:54;14.90;2.60
41939;DHT22;23057;48.554;14.454;2023-09-08T05:15:24;16.10;1.00
41939;DHT22;23057;48.554;14.454;2023-09-08T05:17:56;16.60;99.90
41939;DHT22;23057;48.554;14.454;2023-09-08T05:20:27;17.20;1.00
41939;DHT22;23057;48.554;14.454;2023-09-08T05:22:57;17.20;1.00
41939;DHT22;23057;48.554;14.454;2023-09-08T05:25:28;17.20;1.00
41939;DHT22;23057;48.554;14.454;2023-09-08T05:27:59;17.60;1.00
41939;DHT22;23057;48.554;14.454;2023-09-08T05:30:31;17.90;99.90
41939;DHT22;23057;48.554;14.454;2023-09-08T05:33:01;18.10;99.90
41939;DHT22;23057;48.554;14.454;2023-09-08T05:35:32;18.80;99.90
41939;DHT22;23057;48.554;14.454;2023-09-08T05:38:04;19.50;99.90
41939;DHT22;23057;48.554;14.454;2023-09-08T05:40:35;19.10;99.90
41939;DHT22;23057;48.554;14.454;2023-09-08T05:43:06;19.20;99.90
41939;DHT22;23057;48.554;14.454;2023-09-08T05:45:37;19.60;99.90
41939;DHT22;23057;48.554;14.454;2023-09-08T05:48:08;19.70;99.90
41939;DHT22;23057;48.554;14.454;2023-09-08T05:50:39;19.40;99.90
41939;DHT22;23057;48.554;14.454;2023-09-08T05:53:09;19.80;99.90
41939;DHT22;23057;48.554;14.454;2023-09-08T05:55:40;19.90;99.90
41939;DHT22;23057;48.554;14.454;2023-09-08T05:58:11;20.20;99.90
41939;DHT22;23057;48.554;14.454;2023-09-08T06:00:42;20.20;99.90
41939;DHT22;23057;48.554;14.454;2023-09-08T06:03:13;21.20;99.90
41939;DHT22;23057;48.554;14.454;2023-09-08T06:05:44;21.10;99.90
41939;DHT22;23057;48.554;14.454;2023-09-08T06:08:15;21.20;99.90
41939;DHT22;23057;48.554;14.454;2023-09-08T06:10:46;21.50;99.90
41939;DHT22;23057;48.554;14.454;2023-09-08T06:13:17;21.50;99.90
41939;DHT22;23057;48.554;14.454;2023-09-08T06:15:48;21.70;99.90
41939;DHT22;23057;48.554;14.454;2023-09-08T06:18:19;21.70;99.90
41939;DHT22;23057;48.554;14.454;2023-09-08T06:20:52;22.40;99.90
41939;DHT22;23057;48.554;14.454;2023-09-08T06:23:23;22.20;99.90
41939;DHT22;23057;48.554;14.454;2023-09-08T06:25:56;21.60;99.90
41939;DHT22;23057;48.554;14.454;2023-09-08T06:28:30;21.70;99.90
41939;DHT22;23057;48.554;14.454;2023-09-08T06:31:01;22.00;99.90
41939;DHT22;23057;48.554;14.454;2023-09-08T06:33:32;21.30;99.90
41939;DHT22;23057;48.554;14.454;2023-09-08T06:36:03;21.50;99.90
41939;DHT22;23057;48.554;14.454;2023-09-08T06:38:34;21.30;99.90
41939;DHT22;23057;48.554;14.454;2023-09-08T06:41:11;21.70;99.90
41939;DHT22;23057;48.554;14.454;2023-09-08T06:43:44;21.80;99.90
41939;DHT22;23057;48.554;14.454;2023-09-08T06:46:15;22.10;99.90
41939;DHT22;23057;48.554;14.454;2023-09-08T06:48:47;21.90;99.90
41939;DHT22;23057;48.554;14.454;2023-09-08T06:51:18;22.10;99.90
41939;DHT22;23057;48.554;14.454;2023-09-08T06:53:56;21.90;99.90
41939;DHT22;23057;48.554;14.454;2023-09-08T06:56:28;22.00;99.90
41939;DHT22;23057;48.554;14.454;2023-09-08T06:59:00;21.60;99.90
41939;DHT22;23057;48.554;14.454;2023-09-08T07:01:31;21.60;99.90
41939;DHT22;23057;48.554;14.454;2023-09-08T07:04:02;21.20;99.90
41939;DHT22;23057;48.554;14.454;2023-09-08T07:06:33;20.90;99.90
41939;DHT22;23057;48.554;14.454;2023-09-08T07:09:05;20.80;99.90
41939;DHT22;23057;48.554;14.454;2023-09-08T07:11:35;20.50;99.90
41939;DHT22;23057;48.554;14.454;2023-09-08T07:14:06;20.50;99.90
41939;DHT22;23057;48.554;14.454;2023-09-08T07:16:37;20.50;99.90
41939;DHT22;23057;48.554;14.454;2023-09-08T07:19:08;20.60;1.00
41939;DHT22;23057;48.554;14.454;2023-09-08T07:21:39;20.80;1.00
41939;DHT22;23057;48.554;14.454;2023-09-08T07:24:09;20.60;1.00
41939;DHT22;23057;48.554;14.454;2023-09-08T07:26:40;20.70;1.00
41939;DHT22;23057;48.554;14.454;2023-09-08T07:29:11;20.90;1.00
41939;DHT22;23057;48.554;14.454;2023-09-08T07:31:42;20.80;99.90
41939;DHT22;23057;48.554;14.454;2023-09-08T07:34:13;20.90;99.90
41939;DHT22;23057;48.554;14.454;2023-09-08T07:36:43;21.30;99.90
41939;DHT22;23057;48.554;14.454;2023-09-08T07:39:14;21.50;99.90
41939;DHT22;23057;48.554;14.454;2023-09-08T07:41:45;21.70;99.90
41939;DHT22;23057;48.554;14.454;2023-09-08T07:44:17;22.00;99.90
41939;DHT22;23057;48.554;14.454;2023-09-08T07:46:48;22.20;99.90
41939;DHT22;23057;48.554;14.454;2023-09-08T07:49:21;22.60;99.90
41939;DHT22;23057;48.554;14.454;2023-09-08T07:51:52;23.20;99.90
41939;DHT22;23057;48.554;14.454;2023-09-08T07:54:22;23.10;99.90
41939;DHT22;23057;48.554;14.454;2023-09-08T07:56:53;23.10;99.90
41939;DHT22;23057;48.554;14.454;2023-09-08T07:59:24;23.10;99.90
41939;DHT22;23057;48.554;14.454;2023-09-08T08:01:55;23.10;99.90
41939;DHT22;23057;48.554;14.454;2023-09-08T08:04:26;23.30;99.90
41939;DHT22;23057;48.554;14.454;2023-09-08T08:06:56;23.60;99.90
41939;DHT22;23057;48.554;14.454;2023-09-08T08:09:27;23.80;99.90
41939;DHT22;23057;48.554;14.454;2023-09-08T08:11:58;24.00;99.90
41939;DHT22;23057;48.554;14.454;2023-09-08T08:14:29;24.00;99.90
41939;DHT22;23057;48.554;14.454;2023-09-08T08:17:00;23.90;99.90
41939;DHT22;23057;48.554;14.454;2023-09-08T08:19:31;23.60;99.90
41939;DHT22;23057;48.554;14.454;2023-09-08T08:22:02;23.80;99.90
41939;DHT22;23057;48.554;14.454;2023-09-08T08:24:33;24.20;99.90
41939;DHT22;23057;48.554;14.454;2023-09-08T08:27:04;24.10;99.90
41939;DHT22;23057;48.554;14.454;2023-09-08T08:29:35;24.40;99.90
41939;DHT22;23057;48.554;14.454;2023-09-08T08:32:06;24.40;99.90
41939;DHT22;23057;48.554;14.454;2023-09-08T08:34:37;24.60;99.90
41939;DHT22;23057;48.554;14.454;2023-09-08T08:37:07;24.40;99.90
41939;DHT22;23057;48.554;14.454;2023-09-08T08:39:38;24.70;99.90
41939;DHT22;23057;48.554;14.454;2023-09-08T08:42:10;24.70;99.90
41939;DHT22;23057;48.554;14.454;2023-09-08T08:44:41;25.20;99.90
41939;DHT22;23057;48.554;14.454;2023-09-08T08:47:13;25.40;99.90
41939;DHT22;23057;48.554;14.454;2023-09-08T08:49:47;25.10;99.90
41939;DHT22;23057;48.554;14.454;2023-09-08T08:52:20;24.80;99.90
41939;DHT22;23057;48.554;14.454;2023-09-08T08:54:51;24.30;99.90
41939;DHT22;23057;48.554;14.454;2023-09-08T08:57:23;23.90;99.90
41939;DHT22;23057;48.554;14.454;2023-09-08T08:59:54;24.40;99.90
41939;DHT22;23057;48.554;14.454;2023-09-08T09:02:25;24.70;99.90
41939;DHT22;23057;48.554;14.454;2023-09-08T09:04:59;24.80;99.90
41939;DHT22;23057;48.554;14.454;2023-09-08T09:07:32;25.20;99.90
41939;DHT22;23057;48.554;14.454;2023-09-08T09:10:04;25.00;99.90
41939;DHT22;23057;48.554;14.454;2023-09-08T09:12:37;25.40;99.90
41939;DHT22;23057;48.554;14.454;2023-09-08T09:15:10;25.60;99.90
41939;DHT22;23057;48.554;14.454;2023-09-08T09:17:41;25.60;99.90
41939;DHT22;23057;48.554;14.454;2023-09-08T09:22:48;24.80;99.90
41939;DHT22;23057;48.554;14.454;2023-09-08T09:25:27;24.70;99.90
41939;DHT22;23057;48.554;14.454;2023-09-08T09:28:02;25.30;99.90
41939;DHT22;23057;48.554;14.454;2023-09-08T09:30:53;25.30;99.90
41939;DHT22;23057;48.554;14.454;2023-09-08T09:33:28;25.50;99.90
41939;DHT22;23057;48.554;14.454;2023-09-08T09:36:00;25.10;99.90
41939;DHT22;23057;48.554;14.454;2023-09-08T09:38:31;25.80;99.90
41939;DHT22;23057;48.554;14.454;2023-09-08T09:41:05;25.90;99.90
41939;DHT22;23057;48.554;14.454;2023-09-08T09:43:36;26.60;99.90
41939;DHT22;23057;48.554;14.454;2023-09-08T09:46:07;26.40;99.90
41939;DHT22;23057;48.554;14.454;2023-09-08T09:48:41;26.60;99.90
41939;DHT22;23057;48.554;14.454;2023-09-08T09:51:16;25.90;99.90
41939;DHT22;23057;48.554;14.454;2023-09-08T09:53:50;25.80;99.90
41939;DHT22;23057;48.554;14.454;2023-09-08T09:56:22;26.10;99.90
41939;DHT22;23057;48.554;14.454;2023-09-08T09:58:55;26.50;99.90
41939;DHT22;23057;48.554;14.454;2023-09-08T10:01:26;26.20;99.90
41939;DHT22;23057;48.554;14.454;2023-09-08T10:03:59;26.10;99.90
41939;DHT22;23057;48.554;14.454;2023-09-08T10:06:32;25.90;99.90
41939;DHT22;23057;48.554;14.454;2023-09-08T10:09:06;26.10;99.90
41939;DHT22;23057;48.554;14.454;2023-09-08T10:11:49;25.80;99.90
41939;DHT22;23057;48.554;14.454;2023-09-08T10:14:25;26.40;99.90
41939;DHT22;23057;48.554;14.454;2023-09-08T10:17:02;26.50;99.90
41939;DHT22;23057;48.554;14.454;2023-09-08T10:19:36;27.20;99.90
41939;DHT22;23057;48.554;14.454;2023-09-08T10:22:12;27.30;99.90
41939;DHT22;23057;48.554;14.454;2023-09-08T10:24:54;27.30;99.90
41939;DHT22;23057;48.554;14.454;2023-09-08T10:27:27;26.70;99.90
41939;DHT22;23057;48.554;14.454;2023-09-08T10:30:03;27.30;99.90
41939;DHT22;23057;48.554;14.454;2023-09-08T10:32:36;27.70;99.90
41939;DHT22;23057;48.554;14.454;2023-09-08T10:35:11;28.10;99.90
41939;DHT22;23057;48.554;14.454;2023-09-08T10:37:42;28.30;99.90
41939;DHT22;23057;48.554;14.454;2023-09-08T10:40:23;28.00;99.90
41939;DHT22;23057;48.554;14.454;2023-09-08T10:43:08;27.70;99.90
41939;DHT22;23057;48.554;14.454;2023-09-08T10:45:40;27.70;99.90
41939;DHT22;23057;48.554;14.454;2023-09-08T10:48:14;27.80;99.90
41939;DHT22;23057;48.554;14.454;2023-09-08T10:50:46;28.30;99.90
41939;DHT22;23057;48.554;14.454;2023-09-08T10:53:18;27.90;99.90
41939;DHT22;23057;48.554;14.454;2023-09-08T10:55:50;27.40;99.90
41939;DHT22;23057;48.554;14.454;2023-09-08T10:58:36;27.40;99.90
41939;DHT22;23057;48.554;14.454;2023-09-08T11:01:16;28.00;99.90
41939;DHT22;23057;48.554;14.454;2023-09-08T11:03:53;28.30;99.90
41939;DHT22;23057;48.554;14.454;2023-09-08T11:06:24;28.50;99.90
41939;DHT22;23057;48.554;14.454;2023-09-08T11:09:06;27.20;99.90
41939;DHT22;23057;48.554;14.454;2023-09-08T11:11:38;27.00;99.90
41939;DHT22;23057;48.554;14.454;2023-09-08T11:14:09;27.10;99.90
41939;DHT22;23057;48.554;14.454;2023-09-08T11:16:40;26.30;99.90
41939;DHT22;23057;48.554;14.454;2023-09-08T11:19:11;27.10;99.90
41939;DHT22;23057;48.554;14.454;2023-09-08T11:21:43;27.90;99.90
41939;DHT22;23057;48.554;14.454;2023-09-08T11:24:14;27.20;99.90
41939;DHT22;23057;48.554;14.454;2023-09-08T11:26:45;27.40;99.90
41939;DHT22;23057;48.554;14.454;2023-09-08T11:29:16;27.20;99.90
41939;DHT22;23057;48.554;14.454;2023-09-08T11:31:52;27.40;99.90
41939;DHT22;23057;48.554;14.454;2023-09-08T11:34:24;27.30;99.90
41939;DHT22;23057;48.554;14.454;2023-09-08T11:36:57;27.60;99.90
41939;DHT22;23057;48.554;14.454;2023-09-08T11:39:28;28.40;99.90
41939;DHT22;23057;48.554;14.454;2023-09-08T11:42:00;28.90;99.90
41939;DHT22;23057;48.554;14.454;2023-09-08T11:44:32;28.70;99.90
41939;DHT22;23057;48.554;14.454;2023-09-08T11:47:09;27.70;99.90
41939;DHT22;23057;48.554;14.454;2023-09-08T11:49:41;27.40;99.90
41939;DHT22;23057;48.554;14.454;2023-09-08T11:52:14;27.90;99.90
41939;DHT22;23057;48.554;14.454;2023-09-08T11:54:45;27.90;99.90
41939;DHT22;23057;48.554;14.454;2023-09-08T11:57:16;27.90;99.90
41939;DHT22;23057;48.554;14.454;2023-09-08T11:59:48;28.10;99.90
41939;DHT22;23057;48.554;14.454;2023-09-08T12:02:20;28.20;99.90
41939;DHT22;23057;48.554;14.454;2023-09-08T12:04:53;27.80;99.90
41939;DHT22;23057;48.554;14.454;2023-09-08T12:07:24;28.30;99.90
41939;DHT22;23057;48.554;14.454;2023-09-08T12:09:55;27.50;99.90
41939;DHT22;23057;48.554;14.454;2023-09-08T12:12:26;27.30;99.90
41939;DHT22;23057;48.554;14.454;2023-09-08T12:14:58;27.20;99.90
41939;DHT22;23057;48.554;14.454;2023-09-08T12:17:29;27.80;99.90
41939;DHT22;23057;48.554;14.454;2023-09-08T12:19:59;27.40;99.90
41939;DHT22;23057;48.554;14.454;2023-09-08T12:22:33;27.20;99.90
41939;DHT22;23057;48.554;14.454;2023-09-08T12:25:08;27.00;99.90
41939;DHT22;23057;48.554;14.454;2023-09-08T12:27:39;27.20;99.90
41939;DHT22;23057;48.554;14.454;2023-09-08T12:30:17;27.70;99.90
41939;DHT22;23057;48.554;14.454;2023-09-08T12:33:01;27.70;99.90
41939;DHT22;23057;48.554;14.454;2023-09-08T12:35:34;27.80;99.90
41939;DHT22;23057;48.554;14.454;2023-09-08T12:38:06;28.10;99.90
41939;DHT22;23057;48.554;14.454;2023-09-08T12:40:38;28.10;99.90
41939;DHT22;23057;48.554;14.454;2023-09-08T12:43:09;28.40;99.90
41939;DHT22;23057;48.554;14.454;2023-09-08T12:45:40;28.20;99.90
41939;DHT22;23057;48.554;14.454;2023-09-08T12:48:11;27.30;99.90
41939;DHT22;23057;48.554;14.454;2023-09-08T12:50:41;27.20;99.90
41939;DHT22;23057;48.554;14.454;2023-09-08T12:53:12;27.70;99.90
41939;DHT22;23057;48.554;14.454;2023-09-08T12:55:43;27.70;99.90
41939;DHT22;23057;48.554;14.454;2023-09-08T12:58:15;27.50;99.90
41939;DHT22;23057;48.554;14.454;2023-09-08T13:00:47;27.10;99.90
41939;DHT22;23057;48.554;14.454;2023-09-08T13:03:17;27.40;99.90
41939;DHT22;23057;48.554;14.454;2023-09-08T13:05:48;27.10;99.90
41939;DHT22;23057;48.554;14.454;2023-09-08T13:08:19;27.30;99.90
41939;DHT22;23057;48.554;14.454;2023-09-08T13:10:50;27.90;99.90
41939;DHT22;23057;48.554;14.454;2023-09-08T13:13:21;28.00;99.90
41939;DHT22;23057;48.554;14.454;2023-09-08T13:15:52;28.20;99.90
41939;DHT22;23057;48.554;14.454;2023-09-08T13:18:23;28.10;99.90
41939;DHT22;23057;48.554;14.454;2023-09-08T13:20:53;27.30;99.90
41939;DHT22;23057;48.554;14.454;2023-09-08T13:23:24;27.40;99.90
41939;DHT22;23057;48.554;14.454;2023-09-08T13:25:55;27.30;99.90
41939;DHT22;23057;48.554;14.454;2023-09-08T13:28:26;27.30;99.90
41939;DHT22;23057;48.554;14.454;2023-09-08T13:30:58;27.80;99.90
41939;DHT22;23057;48.554;14.454;2023-09-08T13:33:28;27.90;99.90
41939;DHT22;23057;48.554;14.454;2023-09-08T13:35:59;28.20;99.90
41939;DHT22;23057;48.554;14.454;2023-09-08T13:38:30;27.60;99.90
41939;DHT22;23057;48.554;14.454;2023-09-08T13:41:01;27.60;99.90
41939;DHT22;23057;48.554;14.454;2023-09-08T13:43:32;27.90;99.90
41939;DHT22;23057;48.554;14.454;2023-09-08T14:12:48;27.00;99.90
41939;DHT22;23057;48.554;14.454;2023-09-08T14:15:19;27.00;99.90
41939;DHT22;23057;48.554;14.454;2023-09-08T14:17:50;27.20;99.90
41939;DHT22;23057;48.554;14.454;2023-09-08T14:20:21;27.40;99.90
41939;DHT22;23057;48.554;14.454;2023-09-08T14:22:52;27.20;99.90
41939;DHT22;23057;48.554;14.454;2023-09-08T14:25:22;27.00;99.90
41939;DHT22;23057;48.554;14.454;2023-09-08T14:27:53;27.40;99.90
41939;DHT22;23057;48.554;14.454;2023-09-08T14:30:24;27.20;99.90
41939;DHT22;23057;48.554;14.454;2023-09-08T14:32:55;26.90;99.90
41939;DHT22;23057;48.554;14.454;2023-09-08T14:35:26;26.90;99.90
41939;DHT22;23057;48.554;14.454;2023-09-08T14:37:57;26.90;99.90
41939;DHT22;23057;48.554;14.454;2023-09-08T14:40:28;27.20;99.90
41939;DHT22;23057;48.554;14.454;2023-09-08T14:42:58;27.20;99.90
41939;DHT22;23057;48.554;14.454;2023-09-08T14:45:29;27.30;99.90
41939;DHT22;23057;48.554;14.454;2023-09-08T14:48:00;27.20;99.90
41939;DHT22;23057;48.554;14.454;2023-09-08T14:50:31;27.30;99.90
41939;DHT22;23057;48.554;14.454;2023-09-08T14:53:02;27.20;99.90
41939;DHT22;23057;48.554;14.454;2023-09-08T14:55:35;26.70;99.90
41939;DHT22;23057;48.554;14.454;2023-09-08T14:58:06;26.30;99.90
41939;DHT22;23057;48.554;14.454;2023-09-08T15:00:37;26.30;99.90
41939;DHT22;23057;48.554;14.454;2023-09-08T15:03:08;26.20;99.90
41939;DHT22;23057;48.554;14.454;2023-09-08T15:05:40;26.00;99.90
41939;DHT22;23057;48.554;14.454;2023-09-08T15:08:11;26.20;99.90
41939;DHT22;23057;48.554;14.454;2023-09-08T15:10:42;26.10;99.90
41939;DHT22;23057;48.554;14.454;2023-09-08T15:13:13;26.40;99.90
41939;DHT22;23057;48.554;14.454;2023-09-08T15:15:44;26.50;99.90
41939;DHT22;23057;48.554;14.454;2023-09-08T15:18:15;26.60;99.90
41939;DHT22;23057;48.554;14.454;2023-09-08T15:20:51;26.30;99.90
41939;DHT22;23057;48.554;14.454;2023-09-08T15:23:25;26.10;99.90
41939;DHT22;23057;48.554;14.454;2023-09-08T15:25:57;25.90;99.90
41939;DHT22;23057;48.554;14.454;2023-09-08T15:28:29;25.80;99.90
41939;DHT22;23057;48.554;14.454;2023-09-08T15:31:00;25.70;99.90
41939;DHT22;23057;48.554;14.454;2023-09-08T15:33:30;25.60;99.90
41939;DHT22;23057;48.554;14.454;2023-09-08T15:36:01;25.60;99.90
41939;DHT22;23057;48.554;14.454;2023-09-08T15:38:32;25.60;99.90
41939;DHT22;23057;48.554;14.454;2023-09-08T15:43:50;25.40;99.90
41939;DHT22;23057;48.554;14.454;2023-09-08T15:46:21;25.40;99.90
41939;DHT22;23057;48.554;14.454;2023-09-08T15:48:52;25.40;99.90
41939;DHT22;23057;48.554;14.454;2023-09-08T15:51:23;25.20;99.90
41939;DHT22;23057;48.554;14.454;2023-09-08T15:53:54;25.20;99.90
41939;DHT22;23057;48.554;14.454;2023-09-08T15:56:25;25.00;99.90
41939;DHT22;23057;48.554;14.454;2023-09-08T15:58:56;24.90;99.90
41939;DHT22;23057;48.554;14.454;2023-09-08T16:01:27;24.90;99.90
41939;DHT22;23057;48.554;14.454;2023-09-08T16:03:58;24.70;99.90
41939;DHT22;23057;48.554;14.454;2023-09-08T16:06:29;24.40;99.90
41939;DHT22;23057;48.554;14.454;2023-09-08T16:09:00;24.30;99.90
41939;DHT22;23057;48.554;14.454;2023-09-08T16:11:31;24.10;99.90
41939;DHT22;23057;48.554;14.454;2023-09-08T16:14:03;24.10;99.90
41939;DHT22;23057;48.554;14.454;2023-09-08T16:16:34;24.00;99.90
41939;DHT22;23057;48.554;14.454;2023-09-08T16:19:06;23.90;99.90
41939;DHT22;23057;48.554;14.454;2023-09-08T16:21:37;23.90;99.90